X  Schlie├čen Metar Luftfahrt Wetterdaten     KOMA Eppley Airfield
Temperatur
37°F Temperatur
25°F Taupunkt
60% Feuchtigkeit



Wind
20 MPH
32 KM/H
9 M/S
17 KTS



310°
NW
Aktuelle Wetterlage

Meistens vereinzelte Wolken Meistens vereinzelte Wolken
Luftdruck 1018.96 (hPa) - 30.09 (inHg)
Sichtweite 10 (Meile) - 16.1 (km)
Flughafen
Flughafen Code KOMA

Position : Eppley Airfield
Entfernung: 20 (mi)

Metar:
KOMA 092152Z 31017G32KT 10SM SCT037 BKN049 BKN060 03/M04 A3009 RMK AO2 PK WND 29034/2141 SLP194 T00331044

Zeit: 12-09-2023 21:52 CST